sensor_id;sensor_type;location;lat;lon;timestamp;P1;durP1;ratioP1;P2;durP2;ratioP2
48935;SDS011;34745;52.276;10.528;2023-04-15T00:01:47;13.27;;;8.13;;
48935;SDS011;34745;52.276;10.528;2023-04-15T00:04:14;8.30;;;5.97;;
48935;SDS011;34745;52.276;10.528;2023-04-15T00:06:41;7.03;;;5.80;;
48935;SDS011;34745;52.276;10.528;2023-04-15T00:09:08;7.70;;;6.40;;
48935;SDS011;34745;52.276;10.528;2023-04-15T00:11:35;8.23;;;6.30;;
48935;SDS011;34745;52.276;10.528;2023-04-15T00:14:02;7.23;;;6.10;;
48935;SDS011;34745;52.276;10.528;2023-04-15T00:16:31;6.00;;;5.40;;
48935;SDS011;34745;52.276;10.528;2023-04-15T00:18:58;9.83;;;6.23;;
48935;SDS011;34745;52.276;10.528;2023-04-15T00:21:26;7.53;;;5.77;;
48935;SDS011;34745;52.276;10.528;2023-04-15T00:23:54;6.30;;;5.10;;
48935;SDS011;34745;52.276;10.528;2023-04-15T00:26:21;6.63;;;5.50;;
48935;SDS011;34745;52.276;10.528;2023-04-15T00:28:48;7.23;;;5.73;;
48935;SDS011;34745;52.276;10.528;2023-04-15T00:31:15;7.67;;;6.03;;
48935;SDS011;34745;52.276;10.528;2023-04-15T00:33:44;6.70;;;6.00;;
48935;SDS011;34745;52.276;10.528;2023-04-15T00:36:11;7.17;;;6.23;;
48935;SDS011;34745;52.276;10.528;2023-04-15T00:38:38;8.00;;;6.50;;
48935;SDS011;34745;52.276;10.528;2023-04-15T00:41:05;7.87;;;6.30;;
48935;SDS011;34745;52.276;10.528;2023-04-15T00:43:33;6.47;;;5.67;;
48935;SDS011;34745;52.276;10.528;2023-04-15T00:46:00;8.23;;;6.93;;
48935;SDS011;34745;52.276;10.528;2023-04-15T00:48:29;9.83;;;6.90;;
48935;SDS011;34745;52.276;10.528;2023-04-15T00:50:58;8.17;;;6.77;;
48935;SDS011;34745;52.276;10.528;2023-04-15T00:53:26;11.17;;;7.13;;
48935;SDS011;34745;52.276;10.528;2023-04-15T00:55:53;8.93;;;6.73;;
48935;SDS011;34745;52.276;10.528;2023-04-15T00:58:20;9.67;;;7.07;;
48935;SDS011;34745;52.276;10.528;2023-04-15T01:00:47;10.23;;;7.23;;
48935;SDS011;34745;52.276;10.528;2023-04-15T01:03:15;9.77;;;7.30;;
48935;SDS011;34745;52.276;10.528;2023-04-15T01:05:42;8.20;;;7.20;;
48935;SDS011;34745;52.276;10.528;2023-04-15T01:08:10;8.73;;;6.87;;
48935;SDS011;34745;52.276;10.528;2023-04-15T01:10:37;10.87;;;7.90;;
48935;SDS011;34745;52.276;10.528;2023-04-15T01:13:05;9.83;;;8.07;;
48935;SDS011;34745;52.276;10.528;2023-04-15T01:15:32;10.03;;;7.90;;
48935;SDS011;34745;52.276;10.528;2023-04-15T01:18:01;11.37;;;8.07;;
48935;SDS011;34745;52.276;10.528;2023-04-15T01:20:28;11.63;;;8.27;;
48935;SDS011;34745;52.276;10.528;2023-04-15T01:22:55;11.13;;;8.03;;
48935;SDS011;34745;52.276;10.528;2023-04-15T01:25:28;11.00;;;8.73;;
48935;SDS011;34745;52.276;10.528;2023-04-15T01:27:58;12.20;;;9.33;;
48935;SDS011;34745;52.276;10.528;2023-04-15T01:30:25;10.87;;;9.10;;
48935;SDS011;34745;52.276;10.528;2023-04-15T01:32:53;11.47;;;8.73;;
48935;SDS011;34745;52.276;10.528;2023-04-15T01:35:20;12.00;;;9.13;;
48935;SDS011;34745;52.276;10.528;2023-04-15T01:37:48;13.03;;;9.27;;
48935;SDS011;34745;52.276;10.528;2023-04-15T01:40:15;11.13;;;9.67;;
48935;SDS011;34745;52.276;10.528;2023-04-15T01:42:43;12.17;;;9.00;;
48935;SDS011;34745;52.276;10.528;2023-04-15T01:45:10;11.53;;;9.50;;
48935;SDS011;34745;52.276;10.528;2023-04-15T01:47:37;13.10;;;9.93;;
48935;SDS011;34745;52.276;10.528;2023-04-15T01:50:05;12.10;;;9.63;;
48935;SDS011;34745;52.276;10.528;2023-04-15T01:52:32;11.57;;;9.43;;
48935;SDS011;34745;52.276;10.528;2023-04-15T01:54:59;13.10;;;9.73;;
48935;SDS011;34745;52.276;10.528;2023-04-15T01:57:26;13.00;;;10.13;;
48935;SDS011;34745;52.276;10.528;2023-04-15T01:59:55;13.87;;;10.10;;
48935;SDS011;34745;52.276;10.528;2023-04-15T02:02:22;12.63;;;9.87;;
48935;SDS011;34745;52.276;10.528;2023-04-15T02:04:49;15.20;;;10.87;;
48935;SDS011;34745;52.276;10.528;2023-04-15T02:07:16;13.13;;;10.27;;
48935;SDS011;34745;52.276;10.528;2023-04-15T02:09:44;13.70;;;10.33;;
48935;SDS011;34745;52.276;10.528;2023-04-15T02:12:11;12.77;;;9.80;;
48935;SDS011;34745;52.276;10.528;2023-04-15T02:14:39;11.87;;;9.37;;
48935;SDS011;34745;52.276;10.528;2023-04-15T02:17:07;11.93;;;10.07;;
48935;SDS011;34745;52.276;10.528;2023-04-15T02:19:34;12.90;;;10.03;;
48935;SDS011;34745;52.276;10.528;2023-04-15T02:22:01;12.47;;;10.37;;
48935;SDS011;34745;52.276;10.528;2023-04-15T02:24:29;14.47;;;10.50;;
48935;SDS011;34745;52.276;10.528;2023-04-15T02:26:56;16.10;;;11.30;;
48935;SDS011;34745;52.276;10.528;2023-04-15T02:29:23;14.37;;;10.63;;
48935;SDS011;34745;52.276;10.528;2023-04-15T02:31:50;14.37;;;10.67;;
48935;SDS011;34745;52.276;10.528;2023-04-15T02:34:19;12.93;;;10.77;;
48935;SDS011;34745;52.276;10.528;2023-04-15T02:36:46;14.93;;;10.90;;
48935;SDS011;34745;52.276;10.528;2023-04-15T02:39:15;14.23;;;11.70;;
48935;SDS011;34745;52.276;10.528;2023-04-15T02:41:43;15.33;;;11.00;;
48935;SDS011;34745;52.276;10.528;2023-04-15T02:44:13;17.67;;;12.10;;
48935;SDS011;34745;52.276;10.528;2023-04-15T02:46:40;17.33;;;11.77;;
48935;SDS011;34745;52.276;10.528;2023-04-15T02:49:07;16.03;;;11.60;;
48935;SDS011;34745;52.276;10.528;2023-04-15T02:51:35;16.60;;;12.83;;
48935;SDS011;34745;52.276;10.528;2023-04-15T02:54:02;16.53;;;12.07;;
48935;SDS011;34745;52.276;10.528;2023-04-15T02:56:29;19.17;;;13.07;;
48935;SDS011;34745;52.276;10.528;2023-04-15T02:58:57;19.00;;;13.97;;
48935;SDS011;34745;52.276;10.528;2023-04-15T03:01:24;21.40;;;13.40;;
48935;SDS011;34745;52.276;10.528;2023-04-15T03:03:52;20.90;;;14.03;;
48935;SDS011;34745;52.276;10.528;2023-04-15T03:06:19;17.23;;;12.83;;
48935;SDS011;34745;52.276;10.528;2023-04-15T03:08:47;19.00;;;13.93;;
48935;SDS011;34745;52.276;10.528;2023-04-15T03:11:14;19.13;;;13.30;;
48935;SDS011;34745;52.276;10.528;2023-04-15T03:13:42;18.70;;;13.87;;
48935;SDS011;34745;52.276;10.528;2023-04-15T03:16:09;21.77;;;13.87;;
48935;SDS011;34745;52.276;10.528;2023-04-15T03:18:36;19.30;;;13.80;;
48935;SDS011;34745;52.276;10.528;2023-04-15T03:21:04;22.50;;;14.40;;
48935;SDS011;34745;52.276;10.528;2023-04-15T03:23:32;20.40;;;14.87;;
48935;SDS011;34745;52.276;10.528;2023-04-15T03:26:01;24.10;;;15.17;;
48935;SDS011;34745;52.276;10.528;2023-04-15T03:28:29;20.50;;;14.73;;
48935;SDS011;34745;52.276;10.528;2023-04-15T03:30:58;23.63;;;16.10;;
48935;SDS011;34745;52.276;10.528;2023-04-15T03:33:25;21.57;;;15.80;;
48935;SDS011;34745;52.276;10.528;2023-04-15T03:35:52;24.67;;;16.37;;
48935;SDS011;34745;52.276;10.528;2023-04-15T03:38:19;24.57;;;16.97;;
48935;SDS011;34745;52.276;10.528;2023-04-15T03:40:46;24.30;;;16.33;;
48935;SDS011;34745;52.276;10.528;2023-04-15T03:43:15;25.37;;;16.60;;
48935;SDS011;34745;52.276;10.528;2023-04-15T03:45:42;23.77;;;16.63;;
48935;SDS011;34745;52.276;10.528;2023-04-15T03:48:09;23.77;;;16.17;;
48935;SDS011;34745;52.276;10.528;2023-04-15T03:50:43;23.03;;;16.53;;
48935;SDS011;34745;52.276;10.528;2023-04-15T03:53:10;23.00;;;15.83;;
48935;SDS011;34745;52.276;10.528;2023-04-15T03:55:37;21.23;;;15.53;;
48935;SDS011;34745;52.276;10.528;2023-04-15T03:58:05;23.67;;;16.40;;
48935;SDS011;34745;52.276;10.528;2023-04-15T04:00:33;23.57;;;15.97;;
48935;SDS011;34745;52.276;10.528;2023-04-15T04:03:01;25.30;;;15.77;;
48935;SDS011;34745;52.276;10.528;2023-04-15T04:05:28;24.80;;;16.40;;
48935;SDS011;34745;52.276;10.528;2023-04-15T04:07:55;24.43;;;15.83;;
48935;SDS011;34745;52.276;10.528;2023-04-15T04:10:22;21.77;;;15.03;;
48935;SDS011;34745;52.276;10.528;2023-04-15T04:12:49;23.47;;;15.90;;
48935;SDS011;34745;52.276;10.528;2023-04-15T04:15:16;25.37;;;15.43;;
48935;SDS011;34745;52.276;10.528;2023-04-15T04:17:45;20.97;;;14.20;;
48935;SDS011;34745;52.276;10.528;2023-04-15T04:20:12;21.53;;;15.37;;
48935;SDS011;34745;52.276;10.528;2023-04-15T04:22:39;24.80;;;16.20;;
48935;SDS011;34745;52.276;10.528;2023-04-15T04:25:07;23.43;;;14.93;;
48935;SDS011;34745;52.276;10.528;2023-04-15T04:27:38;23.47;;;15.47;;
48935;SDS011;34745;52.276;10.528;2023-04-15T04:30:06;25.83;;;15.67;;
48935;SDS011;34745;52.276;10.528;2023-04-15T04:32:33;21.43;;;15.20;;
48935;SDS011;34745;52.276;10.528;2023-04-15T04:35:02;22.83;;;16.50;;
48935;SDS011;34745;52.276;10.528;2023-04-15T04:37:30;24.57;;;16.70;;
48935;SDS011;34745;52.276;10.528;2023-04-15T04:39:57;22.33;;;15.77;;
48935;SDS011;34745;52.276;10.528;2023-04-15T04:42:24;24.43;;;16.57;;
48935;SDS011;34745;52.276;10.528;2023-04-15T04:44:52;23.20;;;15.60;;
48935;SDS011;34745;52.276;10.528;2023-04-15T04:47:18;23.87;;;15.87;;
48935;SDS011;34745;52.276;10.528;2023-04-15T04:49:46;26.47;;;15.93;;
48935;SDS011;34745;52.276;10.528;2023-04-15T04:52:14;22.00;;;13.87;;
48935;SDS011;34745;52.276;10.528;2023-04-15T04:54:41;19.57;;;13.67;;
48935;SDS011;34745;52.276;10.528;2023-04-15T04:57:08;21.33;;;14.27;;
48935;SDS011;34745;52.276;10.528;2023-04-15T04:59:35;20.77;;;13.93;;
48935;SDS011;34745;52.276;10.528;2023-04-15T05:02:03;20.57;;;14.50;;
48935;SDS011;34745;52.276;10.528;2023-04-15T05:04:30;22.03;;;14.40;;
48935;SDS011;34745;52.276;10.528;2023-04-15T05:06:57;24.37;;;14.47;;
48935;SDS011;34745;52.276;10.528;2023-04-15T05:09:26;22.03;;;14.90;;
48935;SDS011;34745;52.276;10.528;2023-04-15T05:11:54;19.87;;;13.83;;
48935;SDS011;34745;52.276;10.528;2023-04-15T05:14:22;21.13;;;14.90;;
48935;SDS011;34745;52.276;10.528;2023-04-15T05:16:49;21.10;;;14.57;;
48935;SDS011;34745;52.276;10.528;2023-04-15T05:19:16;22.50;;;14.97;;
48935;SDS011;34745;52.276;10.528;2023-04-15T05:21:43;19.63;;;15.03;;
48935;SDS011;34745;52.276;10.528;2023-04-15T05:24:10;22.50;;;15.70;;
48935;SDS011;34745;52.276;10.528;2023-04-15T05:26:39;22.67;;;16.00;;
48935;SDS011;34745;52.276;10.528;2023-04-15T05:29:08;20.13;;;14.90;;
48935;SDS011;34745;52.276;10.528;2023-04-15T05:31:35;22.40;;;15.87;;
48935;SDS011;34745;52.276;10.528;2023-04-15T05:34:02;21.70;;;16.23;;
48935;SDS011;34745;52.276;10.528;2023-04-15T05:36:30;22.33;;;15.70;;
48935;SDS011;34745;52.276;10.528;2023-04-15T05:38:57;20.97;;;14.43;;
48935;SDS011;34745;52.276;10.528;2023-04-15T05:41:25;19.17;;;13.30;;
48935;SDS011;34745;52.276;10.528;2023-04-15T05:43:53;19.63;;;13.17;;
48935;SDS011;34745;52.276;10.528;2023-04-15T05:46:20;18.70;;;13.23;;
48935;SDS011;34745;52.276;10.528;2023-04-15T05:48:48;16.30;;;12.27;;
48935;SDS011;34745;52.276;10.528;2023-04-15T05:51:15;18.97;;;12.60;;
48935;SDS011;34745;52.276;10.528;2023-04-15T05:53:42;17.33;;;12.50;;
48935;SDS011;34745;52.276;10.528;2023-04-15T05:56:11;19.67;;;12.60;;
48935;SDS011;34745;52.276;10.528;2023-04-15T05:58:38;20.83;;;12.43;;
48935;SDS011;34745;52.276;10.528;2023-04-15T06:01:06;16.63;;;12.77;;
48935;SDS011;34745;52.276;10.528;2023-04-15T06:03:33;18.37;;;12.23;;
48935;SDS011;34745;52.276;10.528;2023-04-15T06:06:01;15.70;;;12.13;;
48935;SDS011;34745;52.276;10.528;2023-04-15T06:08:29;16.17;;;11.70;;
48935;SDS011;34745;52.276;10.528;2023-04-15T06:10:57;15.17;;;11.20;;
48935;SDS011;34745;52.276;10.528;2023-04-15T06:13:24;15.77;;;12.00;;
48935;SDS011;34745;52.276;10.528;2023-04-15T06:15:51;16.77;;;12.23;;
48935;SDS011;34745;52.276;10.528;2023-04-15T06:18:20;14.27;;;11.70;;
48935;SDS011;34745;52.276;10.528;2023-04-15T06:20:47;16.70;;;12.30;;
48935;SDS011;34745;52.276;10.528;2023-04-15T06:23:15;16.07;;;11.73;;
48935;SDS011;34745;52.276;10.528;2023-04-15T06:25:42;15.80;;;12.30;;
48935;SDS011;34745;52.276;10.528;2023-04-15T06:28:09;15.30;;;12.17;;
48935;SDS011;34745;52.276;10.528;2023-04-15T06:30:36;14.47;;;12.03;;
48935;SDS011;34745;52.276;10.528;2023-04-15T06:33:04;16.57;;;12.40;;
48935;SDS011;34745;52.276;10.528;2023-04-15T06:35:34;14.70;;;11.40;;
48935;SDS011;34745;52.276;10.528;2023-04-15T06:38:01;14.57;;;11.40;;
48935;SDS011;34745;52.276;10.528;2023-04-15T06:40:29;13.50;;;10.87;;
48935;SDS011;34745;52.276;10.528;2023-04-15T06:42:56;12.47;;;10.53;;
48935;SDS011;34745;52.276;10.528;2023-04-15T06:45:23;14.00;;;11.47;;
48935;SDS011;34745;52.276;10.528;2023-04-15T06:47:51;13.10;;;10.70;;
48935;SDS011;34745;52.276;10.528;2023-04-15T06:50:18;13.97;;;11.33;;
48935;SDS011;34745;52.276;10.528;2023-04-15T06:52:46;14.07;;;11.37;;
48935;SDS011;34745;52.276;10.528;2023-04-15T06:55:13;12.27;;;10.53;;
48935;SDS011;34745;52.276;10.528;2023-04-15T06:57:40;14.13;;;12.13;;
48935;SDS011;34745;52.276;10.528;2023-04-15T07:00:08;14.57;;;11.57;;
48935;SDS011;34745;52.276;10.528;2023-04-15T07:02:37;14.10;;;10.67;;
48935;SDS011;34745;52.276;10.528;2023-04-15T07:05:05;13.23;;;10.50;;
48935;SDS011;34745;52.276;10.528;2023-04-15T07:07:32;14.03;;;11.43;;
48935;SDS011;34745;52.276;10.528;2023-04-15T07:10:01;12.53;;;10.47;;
48935;SDS011;34745;52.276;10.528;2023-04-15T07:12:28;12.80;;;10.57;;
48935;SDS011;34745;52.276;10.528;2023-04-15T07:14:55;14.27;;;10.07;;
48935;SDS011;34745;52.276;10.528;2023-04-15T07:17:23;12.47;;;9.63;;
48935;SDS011;34745;52.276;10.528;2023-04-15T07:19:50;12.50;;;9.80;;
48935;SDS011;34745;52.276;10.528;2023-04-15T07:22:18;12.50;;;10.23;;
48935;SDS011;34745;52.276;10.528;2023-04-15T07:24:45;12.47;;;9.87;;
48935;SDS011;34745;52.276;10.528;2023-04-15T07:27:14;12.10;;;10.33;;
48935;SDS011;34745;52.276;10.528;2023-04-15T07:29:41;10.43;;;9.00;;
48935;SDS011;34745;52.276;10.528;2023-04-15T07:32:09;10.97;;;8.33;;
48935;SDS011;34745;52.276;10.528;2023-04-15T07:34:36;11.83;;;8.77;;
48935;SDS011;34745;52.276;10.528;2023-04-15T07:37:03;17.20;;;11.93;;
48935;SDS011;34745;52.276;10.528;2023-04-15T07:39:30;20.87;;;13.27;;
48935;SDS011;34745;52.276;10.528;2023-04-15T07:41:57;21.67;;;13.63;;
48935;SDS011;34745;52.276;10.528;2023-04-15T07:44:26;12.93;;;10.07;;
48935;SDS011;34745;52.276;10.528;2023-04-15T07:46:54;12.60;;;9.63;;
48935;SDS011;34745;52.276;10.528;2023-04-15T07:49:21;10.37;;;8.67;;
48935;SDS011;34745;52.276;10.528;2023-04-15T07:51:48;9.53;;;7.90;;
48935;SDS011;34745;52.276;10.528;2023-04-15T07:54:16;10.13;;;7.60;;
48935;SDS011;34745;52.276;10.528;2023-04-15T07:56:43;8.83;;;7.90;;
48935;SDS011;34745;52.276;10.528;2023-04-15T07:59:10;8.73;;;7.83;;
48935;SDS011;34745;52.276;10.528;2023-04-15T08:01:39;9.00;;;7.97;;
48935;SDS011;34745;52.276;10.528;2023-04-15T08:04:07;7.37;;;6.67;;
48935;SDS011;34745;52.276;10.528;2023-04-15T08:06:34;7.43;;;6.70;;
48935;SDS011;34745;52.276;10.528;2023-04-15T08:09:02;9.90;;;6.60;;
48935;SDS011;34745;52.276;10.528;2023-04-15T08:11:30;7.30;;;6.53;;
48935;SDS011;34745;52.276;10.528;2023-04-15T08:13:57;7.57;;;6.77;;
48935;SDS011;34745;52.276;10.528;2023-04-15T08:16:25;6.63;;;6.00;;
48935;SDS011;34745;52.276;10.528;2023-04-15T08:18:55;7.43;;;6.57;;
48935;SDS011;34745;52.276;10.528;2023-04-15T08:21:23;7.50;;;6.77;;
48935;SDS011;34745;52.276;10.528;2023-04-15T08:23:51;7.13;;;6.43;;
48935;SDS011;34745;52.276;10.528;2023-04-15T08:26:19;8.20;;;6.67;;
48935;SDS011;34745;52.276;10.528;2023-04-15T08:28:47;7.23;;;6.53;;
48935;SDS011;34745;52.276;10.528;2023-04-15T08:31:15;7.63;;;6.70;;
48935;SDS011;34745;52.276;10.528;2023-04-15T08:33:43;8.40;;;7.07;;
48935;SDS011;34745;52.276;10.528;2023-04-15T08:36:12;10.27;;;7.30;;
48935;SDS011;34745;52.276;10.528;2023-04-15T08:38:39;8.63;;;7.20;;
48935;SDS011;34745;52.276;10.528;2023-04-15T08:41:10;9.30;;;7.43;;
48935;SDS011;34745;52.276;10.528;2023-04-15T08:43:45;9.83;;;7.70;;
48935;SDS011;34745;52.276;10.528;2023-04-15T08:46:17;10.13;;;8.17;;
48935;SDS011;34745;52.276;10.528;2023-04-15T08:48:44;11.97;;;8.17;;
48935;SDS011;34745;52.276;10.528;2023-04-15T08:51:15;12.20;;;8.50;;
48935;SDS011;34745;52.276;10.528;2023-04-15T08:53:43;10.30;;;8.63;;
48935;SDS011;34745;52.276;10.528;2023-04-15T08:56:13;9.37;;;7.90;;
48935;SDS011;34745;52.276;10.528;2023-04-15T08:58:42;11.17;;;9.13;;
48935;SDS011;34745;52.276;10.528;2023-04-15T09:01:10;12.00;;;9.27;;
48935;SDS011;34745;52.276;10.528;2023-04-15T09:03:38;13.63;;;10.00;;
48935;SDS011;34745;52.276;10.528;2023-04-15T09:06:06;11.93;;;9.37;;
48935;SDS011;34745;52.276;10.528;2023-04-15T09:08:35;14.03;;;10.20;;
48935;SDS011;34745;52.276;10.528;2023-04-15T09:11:02;12.33;;;10.03;;
48935;SDS011;34745;52.276;10.528;2023-04-15T09:13:30;15.53;;;11.20;;
48935;SDS011;34745;52.276;10.528;2023-04-15T09:15:57;16.33;;;12.10;;
48935;SDS011;34745;52.276;10.528;2023-04-15T09:18:27;21.10;;;14.30;;
48935;SDS011;34745;52.276;10.528;2023-04-15T09:20:55;26.63;;;17.60;;
48935;SDS011;34745;52.276;10.528;2023-04-15T09:23:31;24.37;;;16.10;;
48935;SDS011;34745;52.276;10.528;2023-04-15T09:26:00;23.60;;;15.93;;
48935;SDS011;34745;52.276;10.528;2023-04-15T09:28:27;22.37;;;16.10;;
48935;SDS011;34745;52.276;10.528;2023-04-15T09:30:55;22.33;;;16.33;;
48935;SDS011;34745;52.276;10.528;2023-04-15T09:33:23;24.50;;;15.83;;
48935;SDS011;34745;52.276;10.528;2023-04-15T09:35:56;23.70;;;16.83;;
48935;SDS011;34745;52.276;10.528;2023-04-15T09:38:26;26.80;;;17.90;;
48935;SDS011;34745;52.276;10.528;2023-04-15T09:40:54;26.33;;;16.90;;
48935;SDS011;34745;52.276;10.528;2023-04-15T09:43:22;27.77;;;18.07;;
48935;SDS011;34745;52.276;10.528;2023-04-15T09:46:03;26.83;;;18.10;;
48935;SDS011;34745;52.276;10.528;2023-04-15T09:48:31;29.03;;;18.60;;
48935;SDS011;34745;52.276;10.528;2023-04-15T09:50:58;26.30;;;18.17;;
48935;SDS011;34745;52.276;10.528;2023-04-15T09:53:26;27.07;;;18.97;;
48935;SDS011;34745;52.276;10.528;2023-04-15T09:55:57;31.20;;;19.27;;
48935;SDS011;34745;52.276;10.528;2023-04-15T09:58:30;28.10;;;19.87;;
48935;SDS011;34745;52.276;10.528;2023-04-15T10:01:01;29.73;;;20.07;;
48935;SDS011;34745;52.276;10.528;2023-04-15T10:03:30;29.03;;;20.27;;
48935;SDS011;34745;52.276;10.528;2023-04-15T10:06:00;30.80;;;21.27;;
48935;SDS011;34745;52.276;10.528;2023-04-15T10:08:28;31.17;;;20.87;;
48935;SDS011;34745;52.276;10.528;2023-04-15T10:10:55;29.67;;;20.10;;
48935;SDS011;34745;52.276;10.528;2023-04-15T10:13:24;31.37;;;20.77;;
48935;SDS011;34745;52.276;10.528;2023-04-15T10:15:56;46.87;;;28.53;;
48935;SDS011;34745;52.276;10.528;2023-04-15T10:18:25;40.47;;;23.97;;
48935;SDS011;34745;52.276;10.528;2023-04-15T10:20:53;36.50;;;24.10;;
48935;SDS011;34745;52.276;10.528;2023-04-15T10:23:21;32.87;;;21.77;;
48935;SDS011;34745;52.276;10.528;2023-04-15T10:25:49;36.37;;;22.10;;
48935;SDS011;34745;52.276;10.528;2023-04-15T10:28:20;32.47;;;22.30;;
48935;SDS011;34745;52.276;10.528;2023-04-15T10:30:50;32.63;;;21.27;;
48935;SDS011;34745;52.276;10.528;2023-04-15T10:33:20;30.47;;;21.53;;
48935;SDS011;34745;52.276;10.528;2023-04-15T10:35:49;31.63;;;21.13;;
48935;SDS011;34745;52.276;10.528;2023-04-15T10:38:33;31.20;;;21.27;;
48935;SDS011;34745;52.276;10.528;2023-04-15T10:41:12;32.47;;;22.13;;
48935;SDS011;34745;52.276;10.528;2023-04-15T10:43:49;29.83;;;21.07;;
48935;SDS011;34745;52.276;10.528;2023-04-15T10:46:19;30.90;;;22.17;;
48935;SDS011;34745;52.276;10.528;2023-04-15T10:48:52;28.90;;;21.13;;
48935;SDS011;34745;52.276;10.528;2023-04-15T10:51:27;32.57;;;22.17;;
48935;SDS011;34745;52.276;10.528;2023-04-15T10:53:56;32.70;;;22.47;;
48935;SDS011;34745;52.276;10.528;2023-04-15T10:56:24;32.43;;;22.10;;
48935;SDS011;34745;52.276;10.528;2023-04-15T10:58:53;30.10;;;21.13;;
48935;SDS011;34745;52.276;10.528;2023-04-15T11:01:20;35.73;;;23.07;;
48935;SDS011;34745;52.276;10.528;2023-04-15T11:03:50;33.73;;;23.13;;
48935;SDS011;34745;52.276;10.528;2023-04-15T11:06:21;31.63;;;22.37;;
48935;SDS011;34745;52.276;10.528;2023-04-15T11:09:11;33.77;;;22.63;;
48935;SDS011;34745;52.276;10.528;2023-04-15T11:12:05;31.97;;;22.23;;
48935;SDS011;34745;52.276;10.528;2023-04-15T11:14:38;35.30;;;22.00;;
48935;SDS011;34745;52.276;10.528;2023-04-15T11:17:07;34.87;;;23.67;;
48935;SDS011;34745;52.276;10.528;2023-04-15T11:19:36;33.37;;;22.70;;
48935;SDS011;34745;52.276;10.528;2023-04-15T11:22:07;35.17;;;23.80;;
48935;SDS011;34745;52.276;10.528;2023-04-15T11:24:34;32.90;;;23.53;;
48935;SDS011;34745;52.276;10.528;2023-04-15T11:27:02;36.87;;;24.70;;
48935;SDS011;34745;52.276;10.528;2023-04-15T11:29:29;32.63;;;23.50;;
48935;SDS011;34745;52.276;10.528;2023-04-15T11:32:03;36.90;;;24.07;;
48935;SDS011;34745;52.276;10.528;2023-04-15T11:34:32;35.37;;;24.80;;
48935;SDS011;34745;52.276;10.528;2023-04-15T11:37:04;37.43;;;25.33;;
48935;SDS011;34745;52.276;10.528;2023-04-15T11:39:31;40.80;;;25.77;;
48935;SDS011;34745;52.276;10.528;2023-04-15T11:41:59;38.10;;;26.67;;
48935;SDS011;34745;52.276;10.528;2023-04-15T11:44:26;47.33;;;27.20;;
48935;SDS011;34745;52.276;10.528;2023-04-15T11:46:53;47.20;;;28.53;;
48935;SDS011;34745;52.276;10.528;2023-04-15T11:49:27;49.70;;;27.97;;
48935;SDS011;34745;52.276;10.528;2023-04-15T11:51:56;40.30;;;27.27;;
48935;SDS011;34745;52.276;10.528;2023-04-15T11:54:24;44.73;;;27.67;;
48935;SDS011;34745;52.276;10.528;2023-04-15T11:56:52;50.93;;;28.63;;
48935;SDS011;34745;52.276;10.528;2023-04-15T11:59:19;47.57;;;29.43;;
48935;SDS011;34745;52.276;10.528;2023-04-15T12:01:47;49.50;;;29.87;;
48935;SDS011;34745;52.276;10.528;2023-04-15T12:04:15;47.27;;;28.93;;
48935;SDS011;34745;52.276;10.528;2023-04-15T12:06:51;49.90;;;29.30;;
48935;SDS011;34745;52.276;10.528;2023-04-15T12:09:18;45.47;;;28.73;;
48935;SDS011;34745;52.276;10.528;2023-04-15T12:11:48;46.90;;;29.30;;
48935;SDS011;34745;52.276;10.528;2023-04-15T12:14:20;54.20;;;29.93;;
48935;SDS011;34745;52.276;10.528;2023-04-15T12:16:50;52.00;;;29.07;;
48935;SDS011;34745;52.276;10.528;2023-04-15T12:19:24;49.10;;;28.73;;
48935;SDS011;34745;52.276;10.528;2023-04-15T12:21:53;49.00;;;28.67;;
48935;SDS011;34745;52.276;10.528;2023-04-15T12:24:26;49.90;;;28.80;;
48935;SDS011;34745;52.276;10.528;2023-04-15T12:26:55;47.80;;;28.47;;
48935;SDS011;34745;52.276;10.528;2023-04-15T12:29:24;51.03;;;28.50;;
48935;SDS011;34745;52.276;10.528;2023-04-15T12:31:54;48.57;;;28.80;;
48935;SDS011;34745;52.276;10.528;2023-04-15T12:34:26;46.50;;;28.50;;
48935;SDS011;34745;52.276;10.528;2023-04-15T12:36:55;48.37;;;29.13;;
48935;SDS011;34745;52.276;10.528;2023-04-15T12:39:23;48.03;;;28.17;;
48935;SDS011;34745;52.276;10.528;2023-04-15T12:41:55;47.27;;;28.30;;
48935;SDS011;34745;52.276;10.528;2023-04-15T12:44:22;49.10;;;28.63;;
48935;SDS011;34745;52.276;10.528;2023-04-15T12:46:50;47.97;;;27.93;;
48935;SDS011;34745;52.276;10.528;2023-04-15T12:49:20;43.90;;;27.43;;
48935;SDS011;34745;52.276;10.528;2023-04-15T12:51:49;48.77;;;27.67;;
48935;SDS011;34745;52.276;10.528;2023-04-15T12:54:18;50.93;;;29.80;;
48935;SDS011;34745;52.276;10.528;2023-04-15T12:56:45;48.97;;;29.23;;
48935;SDS011;34745;52.276;10.528;2023-04-15T12:59:14;50.53;;;29.63;;
48935;SDS011;34745;52.276;10.528;2023-04-15T13:01:44;45.93;;;28.17;;
48935;SDS011;34745;52.276;10.528;2023-04-15T13:04:12;47.33;;;27.90;;
48935;SDS011;34745;52.276;10.528;2023-04-15T13:06:40;51.20;;;29.60;;
48935;SDS011;34745;52.276;10.528;2023-04-15T13:09:07;51.23;;;29.30;;
48935;SDS011;34745;52.276;10.528;2023-04-15T13:11:35;49.20;;;28.90;;
48935;SDS011;34745;52.276;10.528;2023-04-15T13:14:02;51.00;;;28.80;;
48935;SDS011;34745;52.276;10.528;2023-04-15T13:16:32;45.67;;;29.07;;
48935;SDS011;34745;52.276;10.528;2023-04-15T13:19:00;49.33;;;28.67;;
48935;SDS011;34745;52.276;10.528;2023-04-15T13:21:29;45.07;;;27.17;;
48935;SDS011;34745;52.276;10.528;2023-04-15T13:24:00;47.60;;;28.37;;
48935;SDS011;34745;52.276;10.528;2023-04-15T13:26:28;43.00;;;27.73;;
48935;SDS011;34745;52.276;10.528;2023-04-15T13:28:56;47.07;;;28.87;;
48935;SDS011;34745;52.276;10.528;2023-04-15T13:31:24;45.90;;;28.17;;
48935;SDS011;34745;52.276;10.528;2023-04-15T13:33:53;42.87;;;26.87;;
48935;SDS011;34745;52.276;10.528;2023-04-15T13:36:20;45.43;;;28.27;;
48935;SDS011;34745;52.276;10.528;2023-04-15T13:38:47;45.37;;;27.93;;
48935;SDS011;34745;52.276;10.528;2023-04-15T13:41:16;44.90;;;27.30;;
48935;SDS011;34745;52.276;10.528;2023-04-15T13:43:43;43.50;;;28.30;;
48935;SDS011;34745;52.276;10.528;2023-04-15T13:46:11;45.20;;;28.33;;
48935;SDS011;34745;52.276;10.528;2023-04-15T13:48:38;44.13;;;28.50;;
48935;SDS011;34745;52.276;10.528;2023-04-15T13:51:07;44.43;;;28.67;;
48935;SDS011;34745;52.276;10.528;2023-04-15T13:53:34;46.17;;;28.90;;
48935;SDS011;34745;52.276;10.528;2023-04-15T13:56:05;45.40;;;28.47;;
48935;SDS011;34745;52.276;10.528;2023-04-15T13:58:32;40.73;;;27.53;;
48935;SDS011;34745;52.276;10.528;2023-04-15T14:00:59;46.57;;;28.13;;
48935;SDS011;34745;52.276;10.528;2023-04-15T14:03:30;40.83;;;28.00;;
48935;SDS011;34745;52.276;10.528;2023-04-15T14:05:58;42.87;;;27.40;;
48935;SDS011;34745;52.276;10.528;2023-04-15T14:08:26;43.07;;;28.00;;
48935;SDS011;34745;52.276;10.528;2023-04-15T14:10:53;45.60;;;28.30;;
48935;SDS011;34745;52.276;10.528;2023-04-15T14:13:20;39.80;;;26.97;;
48935;SDS011;34745;52.276;10.528;2023-04-15T14:15:47;42.50;;;28.07;;
48935;SDS011;34745;52.276;10.528;2023-04-15T14:18:15;40.47;;;27.23;;
48935;SDS011;34745;52.276;10.528;2023-04-15T14:20:42;42.40;;;27.80;;